UGKO/KIU METAR and TAF weather

Enter ICAO airport designator
Station Type Date Time Source
UGKO METAR 2019/02/17 15:30 UTC NOAA

UGKO 171530Z 29011KT 9999 SCT025 BKN045 05/04 Q1025 NOSIG


Station Type Date Time Source
UGKO Decoded METAR 2019/02/17 15:30 UTC NOAA

Station name not available
Feb 17, 2019 - 10:30 AM EST / 2019.02.17 1530 UTC
Wind: from the WNW (290 degrees) at 13 MPH (11 KT):0
Visibility: greater than 7 mile(s):0
Sky conditions: mostly cloudy
Temperature: 41 F (5 C)
Dew Point: 39 F (4 C)
Relative Humidity: 93%
Pressure (altimeter): 30.27 in. Hg (1025 hPa)
ob: UGKO 171530Z 29011KT 9999 SCT025 BKN045 05/04 Q1025 NOSIG
cycle: 15

Station Type Date Time Source
UGKO TAF 2019/02/17 12:04 UTC NOAA

TAF UGKO 171100Z 1712/1812 VRB02KT 9999 SCT020 OVC040 TX07/1811Z TN04/1803Z
TEMPO 1712/1716 26016KT
TEMPO 1722/1810 26006KT 3000 SHRA BKN017CB


Example: see airport list